sensor_id;sensor_type;location;lat;lon;timestamp;P1;durP1;ratioP1;P2;durP2;ratioP2
53674;SDS011;39574;50.534;8.500;2023-09-08T00:00:20;11.5;;;5.6;;
53674;SDS011;39574;50.534;8.500;2023-09-08T00:05:19;10.9;;;5.4;;
53674;SDS011;39574;50.534;8.500;2023-09-08T00:10:19;10.9;;;5.4;;
53674;SDS011;39574;50.534;8.500;2023-09-08T00:15:18;10.8;;;5.4;;
53674;SDS011;39574;50.534;8.500;2023-09-08T00:20:18;10.8;;;5.4;;
53674;SDS011;39574;50.534;8.500;2023-09-08T00:25:18;10.6;;;5.3;;
53674;SDS011;39574;50.534;8.500;2023-09-08T00:30:17;11.1;;;5.2;;
53674;SDS011;39574;50.534;8.500;2023-09-08T00:35:16;10.8;;;5.2;;
53674;SDS011;39574;50.534;8.500;2023-09-08T00:40:16;11.1;;;5.2;;
53674;SDS011;39574;50.534;8.500;2023-09-08T00:45:15;13.2;;;5.4;;
53674;SDS011;39574;50.534;8.500;2023-09-08T00:50:14;12.9;;;5.5;;
53674;SDS011;39574;50.534;8.500;2023-09-08T00:55:14;12.6;;;5.5;;
53674;SDS011;39574;50.534;8.500;2023-09-08T01:00:13;11.8;;;5.5;;
53674;SDS011;39574;50.534;8.500;2023-09-08T01:05:13;10.4;;;5.4;;
53674;SDS011;39574;50.534;8.500;2023-09-08T01:10:12;9.8;;;5.2;;
53674;SDS011;39574;50.534;8.500;2023-09-08T01:15:11;9.7;;;5.3;;
53674;SDS011;39574;50.534;8.500;2023-09-08T01:20:13;10.0;;;5.4;;
53674;SDS011;39574;50.534;8.500;2023-09-08T01:25:13;9.7;;;5.5;;
53674;SDS011;39574;50.534;8.500;2023-09-08T01:30:10;9.7;;;5.5;;
53674;SDS011;39574;50.534;8.500;2023-09-08T01:35:09;10.1;;;5.6;;
53674;SDS011;39574;50.534;8.500;2023-09-08T01:40:09;11.1;;;5.5;;
53674;SDS011;39574;50.534;8.500;2023-09-08T01:45:08;11.0;;;5.5;;
53674;SDS011;39574;50.534;8.500;2023-09-08T01:50:07;10.7;;;5.5;;
53674;SDS011;39574;50.534;8.500;2023-09-08T01:55:07;10.6;;;5.3;;
53674;SDS011;39574;50.534;8.500;2023-09-08T02:00:07;10.4;;;5.4;;
53674;SDS011;39574;50.534;8.500;2023-09-08T02:05:06;10.6;;;5.5;;
53674;SDS011;39574;50.534;8.500;2023-09-08T02:10:05;10.2;;;5.5;;
53674;SDS011;39574;50.534;8.500;2023-09-08T02:15:04;10.3;;;5.5;;
53674;SDS011;39574;50.534;8.500;2023-09-08T02:20:04;10.4;;;5.6;;
53674;SDS011;39574;50.534;8.500;2023-09-08T02:25:03;10.2;;;5.5;;
53674;SDS011;39574;50.534;8.500;2023-09-08T02:30:02;10.6;;;5.7;;
53674;SDS011;39574;50.534;8.500;2023-09-08T02:35:02;10.7;;;5.6;;
53674;SDS011;39574;50.534;8.500;2023-09-08T02:40:01;11.0;;;5.7;;
53674;SDS011;39574;50.534;8.500;2023-09-08T02:45:00;10.0;;;5.3;;
53674;SDS011;39574;50.534;8.500;2023-09-08T02:50:00;9.8;;;5.3;;
53674;SDS011;39574;50.534;8.500;2023-09-08T02:54:59;9.7;;;5.2;;
53674;SDS011;39574;50.534;8.500;2023-09-08T02:59:59;9.5;;;5.3;;
53674;SDS011;39574;50.534;8.500;2023-09-08T03:04:58;9.8;;;5.3;;
53674;SDS011;39574;50.534;8.500;2023-09-08T03:09:57;9.9;;;5.6;;
53674;SDS011;39574;50.534;8.500;2023-09-08T03:14:57;9.6;;;5.5;;
53674;SDS011;39574;50.534;8.500;2023-09-08T03:19:56;9.5;;;5.5;;
53674;SDS011;39574;50.534;8.500;2023-09-08T03:24:55;9.8;;;5.4;;
53674;SDS011;39574;50.534;8.500;2023-09-08T03:29:55;9.8;;;5.3;;
53674;SDS011;39574;50.534;8.500;2023-09-08T03:34:54;10.7;;;5.7;;
53674;SDS011;39574;50.534;8.500;2023-09-08T03:39:54;11.8;;;5.9;;
53674;SDS011;39574;50.534;8.500;2023-09-08T03:44:53;12.3;;;6.2;;
53674;SDS011;39574;50.534;8.500;2023-09-08T03:49:52;12.0;;;6.0;;
53674;SDS011;39574;50.534;8.500;2023-09-08T03:54:52;11.5;;;5.8;;
53674;SDS011;39574;50.534;8.500;2023-09-08T03:59:51;10.6;;;5.6;;
53674;SDS011;39574;50.534;8.500;2023-09-08T04:04:50;11.3;;;5.8;;
53674;SDS011;39574;50.534;8.500;2023-09-08T04:09:49;10.9;;;5.7;;
53674;SDS011;39574;50.534;8.500;2023-09-08T04:14:49;10.7;;;5.6;;
53674;SDS011;39574;50.534;8.500;2023-09-08T04:19:48;10.9;;;5.7;;
53674;SDS011;39574;50.534;8.500;2023-09-08T04:24:47;10.4;;;5.6;;
53674;SDS011;39574;50.534;8.500;2023-09-08T04:29:47;10.8;;;5.6;;
53674;SDS011;39574;50.534;8.500;2023-09-08T04:34:46;11.7;;;5.8;;
53674;SDS011;39574;50.534;8.500;2023-09-08T04:39:45;11.3;;;5.6;;
53674;SDS011;39574;50.534;8.500;2023-09-08T04:44:44;11.0;;;5.5;;
53674;SDS011;39574;50.534;8.500;2023-09-08T04:49:44;10.9;;;5.6;;
53674;SDS011;39574;50.534;8.500;2023-09-08T04:54:43;11.1;;;5.5;;
53674;SDS011;39574;50.534;8.500;2023-09-08T04:59:42;11.9;;;5.7;;
53674;SDS011;39574;50.534;8.500;2023-09-08T05:04:42;11.2;;;5.9;;
53674;SDS011;39574;50.534;8.500;2023-09-08T05:09:41;10.5;;;5.7;;
53674;SDS011;39574;50.534;8.500;2023-09-08T05:14:40;10.7;;;6.0;;
53674;SDS011;39574;50.534;8.500;2023-09-08T05:19:39;10.3;;;5.9;;
53674;SDS011;39574;50.534;8.500;2023-09-08T05:24:39;10.7;;;5.8;;
53674;SDS011;39574;50.534;8.500;2023-09-08T05:29:38;10.8;;;5.8;;
53674;SDS011;39574;50.534;8.500;2023-09-08T05:34:37;10.7;;;5.8;;
53674;SDS011;39574;50.534;8.500;2023-09-08T05:39:37;10.7;;;5.8;;
53674;SDS011;39574;50.534;8.500;2023-09-08T05:44:36;10.7;;;5.9;;
53674;SDS011;39574;50.534;8.500;2023-09-08T05:49:35;10.3;;;5.9;;
53674;SDS011;39574;50.534;8.500;2023-09-08T05:54:34;10.7;;;6.1;;
53674;SDS011;39574;50.534;8.500;2023-09-08T05:59:34;11.2;;;6.2;;
53674;SDS011;39574;50.534;8.500;2023-09-08T06:04:33;11.2;;;6.3;;
53674;SDS011;39574;50.534;8.500;2023-09-08T06:09:32;12.4;;;6.2;;
53674;SDS011;39574;50.534;8.500;2023-09-08T06:14:32;12.1;;;6.2;;
53674;SDS011;39574;50.534;8.500;2023-09-08T06:19:31;11.7;;;6.3;;
53674;SDS011;39574;50.534;8.500;2023-09-08T06:24:30;12.2;;;6.6;;
53674;SDS011;39574;50.534;8.500;2023-09-08T06:29:30;12.8;;;7.2;;
53674;SDS011;39574;50.534;8.500;2023-09-08T06:34:29;13.6;;;7.4;;
53674;SDS011;39574;50.534;8.500;2023-09-08T06:39:28;13.1;;;7.3;;
53674;SDS011;39574;50.534;8.500;2023-09-08T06:44:28;13.4;;;7.5;;
53674;SDS011;39574;50.534;8.500;2023-09-08T06:49:27;14.3;;;7.3;;
53674;SDS011;39574;50.534;8.500;2023-09-08T06:54:26;14.4;;;7.3;;
53674;SDS011;39574;50.534;8.500;2023-09-08T06:59:26;14.0;;;7.3;;
53674;SDS011;39574;50.534;8.500;2023-09-08T07:04:25;13.4;;;7.2;;
53674;SDS011;39574;50.534;8.500;2023-09-08T07:09:24;13.1;;;7.2;;
53674;SDS011;39574;50.534;8.500;2023-09-08T07:14:24;12.4;;;7.1;;
53674;SDS011;39574;50.534;8.500;2023-09-08T07:19:24;12.2;;;7.4;;
53674;SDS011;39574;50.534;8.500;2023-09-08T07:24:23;13.1;;;7.9;;
53674;SDS011;39574;50.534;8.500;2023-09-08T07:29:22;13.6;;;8.0;;
53674;SDS011;39574;50.534;8.500;2023-09-08T07:34:22;13.2;;;7.8;;
53674;SDS011;39574;50.534;8.500;2023-09-08T07:39:21;13.2;;;7.6;;
53674;SDS011;39574;50.534;8.500;2023-09-08T07:44:21;12.8;;;7.3;;
53674;SDS011;39574;50.534;8.500;2023-09-08T07:49:20;12.9;;;7.4;;
53674;SDS011;39574;50.534;8.500;2023-09-08T07:54:20;12.5;;;7.2;;
53674;SDS011;39574;50.534;8.500;2023-09-08T07:59:19;12.2;;;7.1;;
53674;SDS011;39574;50.534;8.500;2023-09-08T08:04:19;11.6;;;6.8;;
53674;SDS011;39574;50.534;8.500;2023-09-08T08:09:19;10.6;;;6.4;;
53674;SDS011;39574;50.534;8.500;2023-09-08T08:14:18;10.5;;;6.5;;
53674;SDS011;39574;50.534;8.500;2023-09-08T08:19:17;10.0;;;6.3;;
53674;SDS011;39574;50.534;8.500;2023-09-08T08:24:17;10.2;;;6.3;;
53674;SDS011;39574;50.534;8.500;2023-09-08T08:29:17;10.7;;;6.3;;
53674;SDS011;39574;50.534;8.500;2023-09-08T08:34:16;10.2;;;6.2;;
53674;SDS011;39574;50.534;8.500;2023-09-08T08:39:16;10.4;;;5.9;;
53674;SDS011;39574;50.534;8.500;2023-09-08T08:44:16;9.5;;;5.6;;
53674;SDS011;39574;50.534;8.500;2023-09-08T08:49:15;10.3;;;5.6;;
53674;SDS011;39574;50.534;8.500;2023-09-08T08:54:15;10.0;;;5.5;;
53674;SDS011;39574;50.534;8.500;2023-09-08T08:59:15;9.3;;;5.2;;
53674;SDS011;39574;50.534;8.500;2023-09-08T09:04:15;8.9;;;5.2;;
53674;SDS011;39574;50.534;8.500;2023-09-08T09:09:14;8.6;;;5.1;;
53674;SDS011;39574;50.534;8.500;2023-09-08T09:14:14;8.6;;;4.9;;
53674;SDS011;39574;50.534;8.500;2023-09-08T09:19:17;8.6;;;4.9;;
53674;SDS011;39574;50.534;8.500;2023-09-08T09:24:14;9.5;;;5.0;;
53674;SDS011;39574;50.534;8.500;2023-09-08T09:29:14;9.4;;;5.0;;
53674;SDS011;39574;50.534;8.500;2023-09-08T09:34:14;9.2;;;5.0;;
53674;SDS011;39574;50.534;8.500;2023-09-08T09:39:13;8.6;;;4.9;;
53674;SDS011;39574;50.534;8.500;2023-09-08T09:44:13;8.3;;;4.8;;
53674;SDS011;39574;50.534;8.500;2023-09-08T09:49:13;8.4;;;4.6;;
53674;SDS011;39574;50.534;8.500;2023-09-08T09:54:13;8.1;;;4.5;;
53674;SDS011;39574;50.534;8.500;2023-09-08T09:59:13;8.5;;;4.7;;
53674;SDS011;39574;50.534;8.500;2023-09-08T10:04:13;8.5;;;4.7;;
53674;SDS011;39574;50.534;8.500;2023-09-08T10:09:13;8.6;;;4.9;;
53674;SDS011;39574;50.534;8.500;2023-09-08T10:14:13;8.7;;;4.8;;
53674;SDS011;39574;50.534;8.500;2023-09-08T10:19:12;8.2;;;4.7;;
53674;SDS011;39574;50.534;8.500;2023-09-08T10:24:14;8.1;;;4.7;;
53674;SDS011;39574;50.534;8.500;2023-09-08T10:29:13;7.8;;;4.6;;
53674;SDS011;39574;50.534;8.500;2023-09-08T10:34:12;7.4;;;4.3;;
53674;SDS011;39574;50.534;8.500;2023-09-08T10:39:28;7.1;;;4.2;;
53674;SDS011;39574;50.534;8.500;2023-09-08T10:44:13;7.1;;;4.1;;
53674;SDS011;39574;50.534;8.500;2023-09-08T10:49:12;6.8;;;4.0;;
53674;SDS011;39574;50.534;8.500;2023-09-08T10:54:15;7.5;;;4.1;;
53674;SDS011;39574;50.534;8.500;2023-09-08T10:59:13;8.3;;;4.2;;
53674;SDS011;39574;50.534;8.500;2023-09-08T11:04:13;8.3;;;4.3;;
53674;SDS011;39574;50.534;8.500;2023-09-08T11:09:14;7.6;;;4.1;;
53674;SDS011;39574;50.534;8.500;2023-09-08T11:14:13;8.6;;;4.2;;
53674;SDS011;39574;50.534;8.500;2023-09-08T11:19:13;8.2;;;4.2;;
53674;SDS011;39574;50.534;8.500;2023-09-08T11:24:13;8.0;;;4.2;;
53674;SDS011;39574;50.534;8.500;2023-09-08T11:29:13;9.5;;;4.3;;
53674;SDS011;39574;50.534;8.500;2023-09-08T11:34:13;8.7;;;4.3;;
53674;SDS011;39574;50.534;8.500;2023-09-08T11:39:13;8.3;;;4.4;;
53674;SDS011;39574;50.534;8.500;2023-09-08T11:44:15;8.0;;;4.4;;
53674;SDS011;39574;50.534;8.500;2023-09-08T11:49:13;7.6;;;4.3;;
53674;SDS011;39574;50.534;8.500;2023-09-08T11:54:14;7.7;;;4.3;;
53674;SDS011;39574;50.534;8.500;2023-09-08T11:59:14;7.4;;;4.0;;
53674;SDS011;39574;50.534;8.500;2023-09-08T12:04:17;7.4;;;3.9;;
53674;SDS011;39574;50.534;8.500;2023-09-08T12:09:14;7.6;;;3.8;;
53674;SDS011;39574;50.534;8.500;2023-09-08T12:14:14;7.3;;;4.0;;
53674;SDS011;39574;50.534;8.500;2023-09-08T12:19:30;7.4;;;4.1;;
53674;SDS011;39574;50.534;8.500;2023-09-08T12:24:14;7.4;;;4.1;;
53674;SDS011;39574;50.534;8.500;2023-09-08T12:29:14;6.9;;;4.0;;
53674;SDS011;39574;50.534;8.500;2023-09-08T12:34:15;6.6;;;3.8;;
53674;SDS011;39574;50.534;8.500;2023-09-08T12:39:15;6.4;;;3.8;;
53674;SDS011;39574;50.534;8.500;2023-09-08T12:44:15;6.7;;;3.8;;
53674;SDS011;39574;50.534;8.500;2023-09-08T12:49:15;6.7;;;4.0;;
53674;SDS011;39574;50.534;8.500;2023-09-08T12:54:15;6.9;;;4.1;;
53674;SDS011;39574;50.534;8.500;2023-09-08T12:59:16;6.9;;;4.2;;
53674;SDS011;39574;50.534;8.500;2023-09-08T13:04:16;6.8;;;4.1;;
53674;SDS011;39574;50.534;8.500;2023-09-08T13:09:16;7.3;;;4.1;;
53674;SDS011;39574;50.534;8.500;2023-09-08T13:14:16;7.1;;;4.1;;
53674;SDS011;39574;50.534;8.500;2023-09-08T13:19:17;6.7;;;4.0;;
53674;SDS011;39574;50.534;8.500;2023-09-08T13:24:17;6.6;;;4.0;;
53674;SDS011;39574;50.534;8.500;2023-09-08T13:29:17;6.3;;;3.8;;
53674;SDS011;39574;50.534;8.500;2023-09-08T13:34:18;6.3;;;4.1;;
53674;SDS011;39574;50.534;8.500;2023-09-08T13:39:18;6.4;;;3.9;;
53674;SDS011;39574;50.534;8.500;2023-09-08T13:44:18;6.7;;;3.9;;
53674;SDS011;39574;50.534;8.500;2023-09-08T13:49:18;7.0;;;3.8;;
53674;SDS011;39574;50.534;8.500;2023-09-08T13:54:19;6.8;;;3.7;;
53674;SDS011;39574;50.534;8.500;2023-09-08T13:59:19;6.5;;;3.6;;
53674;SDS011;39574;50.534;8.500;2023-09-08T14:04:19;6.8;;;3.7;;
53674;SDS011;39574;50.534;8.500;2023-09-08T14:09:19;6.7;;;3.8;;
53674;SDS011;39574;50.534;8.500;2023-09-08T14:14:19;6.9;;;3.7;;
53674;SDS011;39574;50.534;8.500;2023-09-08T14:19:19;6.4;;;3.6;;
53674;SDS011;39574;50.534;8.500;2023-09-08T14:24:20;8.4;;;3.7;;
53674;SDS011;39574;50.534;8.500;2023-09-08T14:29:21;7.9;;;3.6;;
53674;SDS011;39574;50.534;8.500;2023-09-08T14:34:20;7.8;;;3.5;;
53674;SDS011;39574;50.534;8.500;2023-09-08T14:39:21;7.4;;;3.7;;
53674;SDS011;39574;50.534;8.500;2023-09-08T14:44:21;6.8;;;3.6;;
53674;SDS011;39574;50.534;8.500;2023-09-08T14:49:21;6.5;;;3.5;;
53674;SDS011;39574;50.534;8.500;2023-09-08T14:54:21;6.8;;;3.5;;
53674;SDS011;39574;50.534;8.500;2023-09-08T14:59:21;6.6;;;3.4;;
53674;SDS011;39574;50.534;8.500;2023-09-08T15:04:22;6.8;;;3.5;;
53674;SDS011;39574;50.534;8.500;2023-09-08T15:09:22;6.9;;;3.5;;
53674;SDS011;39574;50.534;8.500;2023-09-08T15:14:22;6.9;;;3.6;;
53674;SDS011;39574;50.534;8.500;2023-09-08T15:19:22;6.9;;;3.5;;
53674;SDS011;39574;50.534;8.500;2023-09-08T15:24:22;6.5;;;3.5;;
53674;SDS011;39574;50.534;8.500;2023-09-08T15:29:23;6.2;;;3.6;;
53674;SDS011;39574;50.534;8.500;2023-09-08T15:34:23;6.1;;;3.5;;
53674;SDS011;39574;50.534;8.500;2023-09-08T15:39:23;6.3;;;3.4;;
53674;SDS011;39574;50.534;8.500;2023-09-08T15:44:23;6.3;;;3.4;;
53674;SDS011;39574;50.534;8.500;2023-09-08T15:49:23;6.4;;;3.4;;
53674;SDS011;39574;50.534;8.500;2023-09-08T15:54:24;6.8;;;3.5;;
53674;SDS011;39574;50.534;8.500;2023-09-08T15:59:24;6.9;;;3.5;;
53674;SDS011;39574;50.534;8.500;2023-09-08T16:04:24;6.9;;;3.6;;
53674;SDS011;39574;50.534;8.500;2023-09-08T16:09:24;6.4;;;3.4;;
53674;SDS011;39574;50.534;8.500;2023-09-08T16:14:24;6.4;;;3.4;;
53674;SDS011;39574;50.534;8.500;2023-09-08T16:19:25;6.5;;;3.3;;
53674;SDS011;39574;50.534;8.500;2023-09-08T16:24:25;7.9;;;3.4;;
53674;SDS011;39574;50.534;8.500;2023-09-08T16:29:25;7.5;;;3.3;;
53674;SDS011;39574;50.534;8.500;2023-09-08T16:34:25;6.9;;;3.3;;
53674;SDS011;39574;50.534;8.500;2023-09-08T16:39:25;6.8;;;3.4;;
53674;SDS011;39574;50.534;8.500;2023-09-08T16:44:25;6.7;;;3.3;;
53674;SDS011;39574;50.534;8.500;2023-09-08T16:49:25;6.6;;;3.3;;
53674;SDS011;39574;50.534;8.500;2023-09-08T16:54:26;6.7;;;3.3;;
53674;SDS011;39574;50.534;8.500;2023-09-08T16:59:26;7.8;;;3.6;;
53674;SDS011;39574;50.534;8.500;2023-09-08T17:04:26;7.8;;;3.9;;
53674;SDS011;39574;50.534;8.500;2023-09-08T17:09:26;7.3;;;3.8;;
53674;SDS011;39574;50.534;8.500;2023-09-08T17:14:26;6.9;;;3.7;;
53674;SDS011;39574;50.534;8.500;2023-09-08T17:19:26;6.6;;;3.8;;
53674;SDS011;39574;50.534;8.500;2023-09-08T17:24:26;6.8;;;3.9;;
53674;SDS011;39574;50.534;8.500;2023-09-08T17:29:26;7.5;;;3.9;;
53674;SDS011;39574;50.534;8.500;2023-09-08T17:34:26;9.2;;;5.2;;
53674;SDS011;39574;50.534;8.500;2023-09-08T17:39:26;9.1;;;5.5;;
53674;SDS011;39574;50.534;8.500;2023-09-08T17:44:26;9.0;;;5.7;;
53674;SDS011;39574;50.534;8.500;2023-09-08T17:49:26;9.5;;;6.2;;
53674;SDS011;39574;50.534;8.500;2023-09-08T17:54:26;11.0;;;6.8;;
53674;SDS011;39574;50.534;8.500;2023-09-08T17:59:25;11.3;;;6.7;;
53674;SDS011;39574;50.534;8.500;2023-09-08T18:04:25;10.2;;;5.8;;
53674;SDS011;39574;50.534;8.500;2023-09-08T18:09:26;9.2;;;4.9;;
53674;SDS011;39574;50.534;8.500;2023-09-08T18:14:24;8.7;;;4.7;;
53674;SDS011;39574;50.534;8.500;2023-09-08T18:19:24;8.6;;;4.7;;
53674;SDS011;39574;50.534;8.500;2023-09-08T18:24:24;8.1;;;4.4;;
53674;SDS011;39574;50.534;8.500;2023-09-08T18:29:24;8.9;;;4.8;;
53674;SDS011;39574;50.534;8.500;2023-09-08T18:34:23;10.3;;;5.1;;
53674;SDS011;39574;50.534;8.500;2023-09-08T18:39:23;10.3;;;5.2;;
53674;SDS011;39574;50.534;8.500;2023-09-08T18:44:23;10.0;;;5.0;;
53674;SDS011;39574;50.534;8.500;2023-09-08T18:49:22;9.4;;;4.9;;
53674;SDS011;39574;50.534;8.500;2023-09-08T18:54:22;9.6;;;4.9;;
53674;SDS011;39574;50.534;8.500;2023-09-08T18:59:21;9.3;;;4.8;;
53674;SDS011;39574;50.534;8.500;2023-09-08T19:04:21;9.6;;;4.8;;
53674;SDS011;39574;50.534;8.500;2023-09-08T19:09:21;9.8;;;5.0;;
53674;SDS011;39574;50.534;8.500;2023-09-08T19:14:20;10.3;;;5.2;;
53674;SDS011;39574;50.534;8.500;2023-09-08T19:19:20;10.0;;;5.1;;
53674;SDS011;39574;50.534;8.500;2023-09-08T19:24:20;9.4;;;5.2;;
53674;SDS011;39574;50.534;8.500;2023-09-08T19:29:19;8.9;;;4.9;;
53674;SDS011;39574;50.534;8.500;2023-09-08T19:34:18;9.1;;;4.9;;
53674;SDS011;39574;50.534;8.500;2023-09-08T19:39:18;9.8;;;4.8;;
53674;SDS011;39574;50.534;8.500;2023-09-08T19:44:17;9.9;;;4.9;;
53674;SDS011;39574;50.534;8.500;2023-09-08T19:49:17;10.2;;;5.1;;
53674;SDS011;39574;50.534;8.500;2023-09-08T19:54:16;9.9;;;5.1;;
53674;SDS011;39574;50.534;8.500;2023-09-08T19:59:16;9.7;;;5.0;;
53674;SDS011;39574;50.534;8.500;2023-09-08T20:04:15;9.3;;;5.0;;
53674;SDS011;39574;50.534;8.500;2023-09-08T20:09:15;9.9;;;5.0;;
53674;SDS011;39574;50.534;8.500;2023-09-08T20:14:14;9.5;;;4.8;;
53674;SDS011;39574;50.534;8.500;2023-09-08T20:19:14;9.7;;;4.9;;
53674;SDS011;39574;50.534;8.500;2023-09-08T20:24:13;9.9;;;4.9;;
53674;SDS011;39574;50.534;8.500;2023-09-08T20:29:14;9.9;;;5.1;;
53674;SDS011;39574;50.534;8.500;2023-09-08T20:34:12;9.4;;;5.2;;
53674;SDS011;39574;50.534;8.500;2023-09-08T20:39:12;8.9;;;5.0;;
53674;SDS011;39574;50.534;8.500;2023-09-08T20:44:11;9.5;;;5.1;;
53674;SDS011;39574;50.534;8.500;2023-09-08T20:49:11;9.2;;;5.0;;
53674;SDS011;39574;50.534;8.500;2023-09-08T20:54:10;9.6;;;5.1;;
53674;SDS011;39574;50.534;8.500;2023-09-08T20:59:10;10.3;;;5.2;;
53674;SDS011;39574;50.534;8.500;2023-09-08T21:04:09;10.0;;;5.2;;
53674;SDS011;39574;50.534;8.500;2023-09-08T21:09:08;10.4;;;5.3;;
53674;SDS011;39574;50.534;8.500;2023-09-08T21:14:08;10.3;;;5.3;;
53674;SDS011;39574;50.534;8.500;2023-09-08T21:19:07;9.5;;;5.3;;
53674;SDS011;39574;50.534;8.500;2023-09-08T21:24:07;9.8;;;5.3;;
53674;SDS011;39574;50.534;8.500;2023-09-08T21:29:06;9.6;;;5.5;;
53674;SDS011;39574;50.534;8.500;2023-09-08T21:34:05;10.0;;;5.5;;
53674;SDS011;39574;50.534;8.500;2023-09-08T21:39:05;10.2;;;5.5;;
53674;SDS011;39574;50.534;8.500;2023-09-08T21:44:05;10.6;;;5.6;;
53674;SDS011;39574;50.534;8.500;2023-09-08T21:49:08;10.5;;;5.6;;
53674;SDS011;39574;50.534;8.500;2023-09-08T21:54:03;10.3;;;5.5;;
53674;SDS011;39574;50.534;8.500;2023-09-08T21:59:03;10.8;;;5.7;;
53674;SDS011;39574;50.534;8.500;2023-09-08T22:04:02;11.3;;;5.6;;
53674;SDS011;39574;50.534;8.500;2023-09-08T22:09:01;11.9;;;5.9;;
53674;SDS011;39574;50.534;8.500;2023-09-08T22:14:01;11.2;;;5.8;;
53674;SDS011;39574;50.534;8.500;2023-09-08T22:19:00;10.9;;;5.9;;
53674;SDS011;39574;50.534;8.500;2023-09-08T22:24:00;10.3;;;5.9;;
53674;SDS011;39574;50.534;8.500;2023-09-08T22:28:59;11.6;;;5.9;;
53674;SDS011;39574;50.534;8.500;2023-09-08T22:33:58;11.4;;;5.6;;
53674;SDS011;39574;50.534;8.500;2023-09-08T22:38:58;10.5;;;5.5;;
53674;SDS011;39574;50.534;8.500;2023-09-08T22:43:57;10.2;;;5.6;;
53674;SDS011;39574;50.534;8.500;2023-09-08T22:48:57;10.2;;;5.6;;
53674;SDS011;39574;50.534;8.500;2023-09-08T22:53:56;10.3;;;5.7;;
53674;SDS011;39574;50.534;8.500;2023-09-08T22:58:56;11.1;;;5.8;;
53674;SDS011;39574;50.534;8.500;2023-09-08T23:03:55;11.2;;;6.1;;
53674;SDS011;39574;50.534;8.500;2023-09-08T23:08:54;11.2;;;6.1;;
53674;SDS011;39574;50.534;8.500;2023-09-08T23:13:54;11.0;;;6.3;;
53674;SDS011;39574;50.534;8.500;2023-09-08T23:18:53;11.5;;;6.0;;
53674;SDS011;39574;50.534;8.500;2023-09-08T23:23:53;11.8;;;6.0;;
53674;SDS011;39574;50.534;8.500;2023-09-08T23:28:52;11.1;;;5.9;;
53674;SDS011;39574;50.534;8.500;2023-09-08T23:33:51;11.2;;;5.9;;
53674;SDS011;39574;50.534;8.500;2023-09-08T23:38:50;10.6;;;5.9;;
53674;SDS011;39574;50.534;8.500;2023-09-08T23:43:50;10.4;;;5.9;;
53674;SDS011;39574;50.534;8.500;2023-09-08T23:48:49;10.7;;;5.9;;
53674;SDS011;39574;50.534;8.500;2023-09-08T23:53:49;10.9;;;6.2;;
53674;SDS011;39574;50.534;8.500;2023-09-08T23:58:48;10.6;;;6.1;;
